KFLLMYGF

Guest
Details From KFLL - Fort Lauderdale Hollywood Intl
To MYGF - Grand Bahama Intl
Flight Number -
Tags generated
Created
Modified
Stats Distance 84 nm / 155 km
Max Altitude 5,400 ft / 1,646 m
Waypoints 3
Social Downloads 0
Likes 0
Share VATSIM

Download

Looking for another format? Having issues loading an existing format? Contact us
Advertisement - Login to hide

Notes

Basic altitude profile: - Ascent Rate: 2500ft/min - Ascent Speed: 250kts - Cruise Altitude: 35000ft - Cruise Speed: 420kts - Descent Rate: 1500ft/min - Descent Speed: 250kts Options: - Use NATs: yes - Use PACOTS: no - Use low airways: yes - Use high airways: yes

Route

KFLL VALLY MYGF

ID Type Via Altitude Latitude Longitude Leg Dist Tot Dist Heading (true) Name
O KFLL APT - 0 ft / 0 m 26.07164˚ -80.15269˚ - 0 nm - Fort Lauderdale Hollywood Intl
VALLY FIX - 5,400 ft / 1,646 m 26.41553˚ -79.13878˚ 58 nm 58 nm 69° / 70° -
O MYGF APT - 0 ft / 0 m 26.55868˚ -78.69555˚ 25 nm 83 nm 70° / 70° Grand Bahama Intl

Altitude Profile

Advertisement - Login to hide

KFLL

Details ICAO KFLL (FLL)
Name Fort Lauderdale Hollywood Intl
Region United States
Timezone America/New_York (UTC-5.0)
Stats Elevation 9 ft / 3 m (AMSL)
Location 26.071638° -80.152694°
Runways 2
Magnetic Variation 6.767° W

METAR

KFLL 161453Z 35004KT 10SM CLR 22/17 A3022 RMK AO2 SLP234 T02170172 51017

Decode

TAF

TAF AMD KFLL 161514Z 1615/1718 VRB05KT P6SM SKC FM161700 07010KT P6SM SCT030 SCT250 FM170000 09005KT P6SM FEW030 FM171500 11010KT P6SM FEW030

Decode

Departure Runways

ID Width Length Bearing (true) Bearing (mag) Surface Threshold Offset Overrun Length
09L 150 ft / 46 m 8,987 ft / 2,739 m 90.35° 97.12° Asphalt 577 ft / 176 m 10 ft / 3 m
09R 100 ft / 30 m 5,268 ft / 1,606 m 90.38° 97.15° Asphalt 320 ft / 98 m 0 ft / 0 m
27L 100 ft / 30 m 5,268 ft / 1,606 m 270.39° 277.16° Asphalt 142 ft / 43 m 0 ft / 0 m
27R 150 ft / 46 m 8,987 ft / 2,739 m 270.37° 277.14° Asphalt 604 ft / 184 m 10 ft / 3 m

MYGF

Details ICAO MYGF (FPO)
Name Grand Bahama Intl
Region Bahamas
Timezone America/Nassau (UTC-5.0)
Stats Elevation 7 ft / 2 m (AMSL)
Location 26.558684° -78.695553°
Runways 1
Magnetic Variation 7.725° W

METAR

MYGF 161500Z 04004KT 9999 FEW030 BKN250 24/16 A3022

Decode

TAF

MYGF 161115Z 1612/1712 VRB02KT 9999 FEW020 BKN030 BECMG 1700/1702 02010KT

Decode

Destination Runways

ID Width Length Bearing (true) Bearing (mag) Surface Threshold Offset Overrun Length
06 151 ft / 46 m 11,016 ft / 3,358 m 60.89° 68.62° Asphalt 0 ft / 0 m 194 ft / 59 m
24 151 ft / 46 m 11,016 ft / 3,358 m 240.91° 248.64° Asphalt 0 ft / 0 m 200 ft / 61 m

Approach Navaids

Runway Type Ident Frequency Range Bearing (true) Bearing (mag) Slope Elevation
06 Localiser IZFP 109.70 MHz 18 nm / 33 km 60.91° 68.63° - 7 ft / 2 m (AMSL)
06 Glidescope IZFP 109.70 MHz 10 nm / 19 km 60.90° 68.63° 3.00° 7 ft / 2 m (AMSL)

Popular Alternatives